Flight Track Log - Related Links

Times and Time Zones

All times are in EDT time to prevent confusion due to time zone crossing. See the TAM3592 flight status page for this flight to view local times or setup timezone preferences in your user account.

Time Position Orientation Groundspeed Altitude Reporting Facility
EDT Latitude Longitude Course Direction KTS MPH feet Rate Location/Type
Sun 02:44:32 PM -21.8110 -51.1372 292° West  Level Estimated
Sun 02:45:32 PM -21.7794 -51.2233 292° West  Level Estimated
Sun 02:46:32 PM -21.7479 -51.3094 292° West  Level Estimated
Sun 02:47:32 PM -21.7162 -51.3955 292° West  Level Estimated
Sun 02:48:32 PM -21.6845 -51.4815 292° West  Level Estimated
Sun 02:49:32 PM -21.6528 -51.5675 292° West  Level Estimated
Sun 02:50:32 PM -21.6210 -51.6535 292° West  Level Estimated
Sun 02:51:32 PM -21.5892 -51.7394 292° West  Level Estimated
Sun 02:52:32 PM -21.5574 -51.8253 292° West  Level Estimated
Sun 02:53:32 PM -21.5255 -51.9112 292° West  Level Estimated
Sun 02:54:32 PM -21.4935 -51.9970 292° West  Level Estimated
Sun 02:55:32 PM -21.4615 -52.0827 292° West  Level Estimated
Sun 02:56:32 PM -21.4295 -52.1685 292° West  Level Estimated
Sun 02:57:32 PM -21.3974 -52.2542 292° West  Level Estimated
Sun 02:58:32 PM -21.3653 -52.3398 292° West  Level Estimated
Sun 02:59:32 PM -21.3332 -52.4254 292° West  Level Estimated
Sun 03:00:32 PM -21.3010 -52.5110 292° West  Level Estimated
Sun 03:01:32 PM -21.2687 -52.5966 292° West  Level Estimated
Sun 03:02:32 PM -21.2364 -52.6821 292° West  Level Estimated
Sun 03:03:32 PM -21.2041 -52.7676 292° West  Level Estimated
Sun 03:04:32 PM -21.1717 -52.8530 292° West  Level Estimated
Sun 03:05:32 PM -21.1393 -52.9384 292° West  Level Estimated
Sun 03:06:32 PM -21.1068 -53.0237 292° West  Level Estimated
Sun 03:07:32 PM -21.0743 -53.1091 292° West  Level Estimated
Sun 03:08:32 PM -21.0418 -53.1943 292° West  Level Estimated
Sun 03:09:32 PM -21.0092 -53.2796 292° West  Level Estimated
Sun 03:10:32 PM -20.9766 -53.3648 292° West  Level Estimated
Sun 03:11:32 PM -20.9439 -53.4500 292° West  Level Estimated
Sun 03:12:32 PM -20.9112 -53.5351 292° West  Level Estimated
Sun 03:13:32 PM -20.8784 -53.6202 292° West  Level Estimated
Sun 03:14:32 PM -20.8456 -53.7053 292° West  Level Estimated
Sun 03:15:32 PM -20.8128 -53.7903 292° West  Level Estimated
Sun 03:16:32 PM -20.7799 -53.8753 293° West  Level Estimated
Sun 03:17:32 PM -20.7470 -53.9602 293° West  Level Estimated
Sun 03:18:32 PM -20.7140 -54.0451 293° West  Level Estimated
Sun 03:19:32 PM -20.6810 -54.1300 293° West  Level Estimated
Sun 03:20:32 PM -20.6479 -54.2148 293° West  Level Estimated
Sun 03:21:32 PM -20.6148 -54.2996 293° West  Level Estimated
Sun 03:22:32 PM -20.5817 -54.3844 293° West  Level Estimated
Sun 03:23:32 PM -20.5485 -54.4691 293° West  Level Estimated
Sun 03:24:32 PM -20.5153 -54.5538 293° West  Level Estimated
Sun 03:25:32 PM -20.4820 -54.6385 293° West  Level Estimated
Sun 03:26:32 PM -20.4488 -54.7231 113° Southeast  Level Estimated
Sun 03:27:32 PM -20.4820 -54.6385 293° West  Level Estimated
Sun 03:28:32 PM -20.4488 -54.7231 113° Southeast  Level Estimated
Sun 03:29:32 PM -20.4820 -54.6385 293° West  Level Estimated
Sun 03:30:32 PM -20.4488 -54.7231 113° Southeast  Level Estimated
Sun 03:31:32 PM -20.4820 -54.6385 293° West  Level Estimated
Sun 03:32:32 PM -20.4488 -54.7231 113° Southeast  Level Estimated
Sun 03:33:32 PM -20.4820 -54.6385 293° West  Level Estimated
Sun 03:34:32 PM -20.4488 -54.7231 113° Southeast  Level Estimated
Sun 03:35:32 PM -20.4820 -54.6385 293° West  Level Estimated
Sun 03:36:32 PM -20.4488 -54.7231 113° Southeast  Level Estimated
Sun 03:37:32 PM -20.4820 -54.6385 293° West  Level Estimated
Sun 03:38:32 PM -20.4488 -54.7231 113° Southeast  Level Estimated
Sun 03:39:32 PM -20.4820 -54.6385 293° West  Level Estimated
Sun 03:40:32 PM -20.4488 -54.7231 113° Southeast  Level Estimated
Sun 03:41:32 PM -20.4820 -54.6385 113° Southeast  Level Estimated

Login

Don't have an account? Register now (free) for customized features, flight alerts, and more!